Wetterdaten: Woche 09.09.13 - 15.09.13 (KW37)
Datum Zeit Temp. Aussen +5cm Feuchte Auss Luftdruck Regen Sonnenschein Regendauer UV Solar Windben
09.09.2013 00:00 12,0 C 10,4 C 98 % 1019,0 hPa 0,0 l/m 0,00 h 0,00 h 0,0 UV-I 0 W/m 0,0 km/h (0 Bft)
09.09.2013 01:00 11,7 C 10,6 C 98 % 1018,6 hPa 0,0 l/m 0,00 h 0,00 h 0,0 UV-I 0 W/m 0,0 km/h (0 Bft)
09.09.2013 02:00 11,8 C 10,6 C 99 % 1018,2 hPa 0,0 l/m 0,00 h 0,00 h 0,0 UV-I 0 W/m 0,0 km/h (0 Bft)
09.09.2013 03:00 11,7 C 10,8 C 99 % 1018,2 hPa 0,0 l/m 0,00 h 0,03 h 0,0 UV-I 0 W/m 0,3 km/h (0 Bft)
09.09.2013 04:00 12,2 C 11,2 C 99 % 1018,2 hPa 0,6 l/m 0,00 h 0,73 h 0,0 UV-I 0 W/m 0,5 km/h (0 Bft)
09.09.2013 05:00 11,4 C 10,3 C 99 % 1018,3 hPa 3,2 l/m 0,00 h 0,80 h 0,0 UV-I 0 W/m 3,7 km/h (1 Bft)
09.09.2013 06:00 11,1 C 9,9 C 99 % 1017,9 hPa 0,0 l/m 0,00 h 0,10 h 0,0 UV-I 0 W/m 0,4 km/h (0 Bft)
09.09.2013 07:00 10,7 C 9,7 C 98 % 1018,4 hPa 0,0 l/m 0,00 h 0,00 h 0,0 UV-I 11 W/m 1,2 km/h (1 Bft)
09.09.2013 08:00 11,2 C 10,3 C 99 % 1018,5 hPa 0,0 l/m 0,10 h 0,00 h 0,0 UV-I 82 W/m 0,2 km/h (0 Bft)
09.09.2013 09:00 11,8 C 10,4 C 97 % 1018,6 hPa 0,0 l/m 0,33 h 0,00 h 0,5 UV-I 180 W/m 2,7 km/h (1 Bft)
09.09.2013 10:00 13,8 C 12,2 C 89 % 1018,8 hPa 0,0 l/m 0,40 h 0,00 h 0,7 UV-I 288 W/m 9,2 km/h (2 Bft)
09.09.2013 11:00 15,2 C 14,0 C 82 % 1018,3 hPa 0,0 l/m 0,73 h 0,00 h 1,8 UV-I 520 W/m 7,3 km/h (2 Bft)
09.09.2013 12:00 17,0 C 16,1 C 71 % 1017,9 hPa 0,0 l/m 0,77 h 0,00 h 2,2 UV-I 597 W/m 9,8 km/h (2 Bft)
09.09.2013 13:00 16,7 C 15,9 C 70 % 1017,6 hPa 0,0 l/m 0,23 h 0,00 h 1,3 UV-I 314 W/m 8,3 km/h (2 Bft)
09.09.2013 14:00 17,9 C 17,2 C 65 % 1017,0 hPa 0,0 l/m 0,40 h 0,00 h 2,5 UV-I 540 W/m 12,2 km/h (2 Bft)
09.09.2013 15:00 18,3 C 17,5 C 61 % 1016,4 hPa 0,0 l/m 0,27 h 0,00 h 2,0 UV-I 545 W/m 15,2 km/h (3 Bft)
09.09.2013 16:00 18,2 C 17,5 C 62 % 1015,9 hPa 0,0 l/m 0,37 h 0,00 h 0,9 UV-I 302 W/m 8,0 km/h (2 Bft)
09.09.2013 17:00 17,9 C 17,2 C 64 % 1015,4 hPa 0,0 l/m 0,20 h 0,00 h 0,8 UV-I 191 W/m 5,6 km/h (1 Bft)
09.09.2013 18:00 16,8 C 15,3 C 69 % 1014,9 hPa 0,0 l/m 0,00 h 0,00 h 0,0 UV-I 40 W/m 2,4 km/h (1 Bft)
09.09.2013 19:00 15,6 C 13,2 C 77 % 1014,5 hPa 0,4 l/m 0,00 h 0,53 h 0,0 UV-I 12 W/m 2,4 km/h (1 Bft)
09.09.2013 20:00 13,5 C 11,7 C 91 % 1014,3 hPa 0,8 l/m 0,00 h 0,87 h 0,0 UV-I 0 W/m 0,9 km/h (0 Bft)
09.09.2013 21:00 13,1 C 11,7 C 95 % 1013,4 hPa 1,2 l/m 0,00 h 0,90 h 0,0 UV-I 0 W/m 0,4 km/h (0 Bft)
09.09.2013 22:00 12,6 C 11,6 C 97 % 1011,9 hPa 1,2 l/m 0,00 h 0,97 h 0,0 UV-I 0 W/m 5,7 km/h (1 Bft)
09.09.2013 23:00 12,4 C 11,5 C 97 % 1010,6 hPa 2,0 l/m 0,00 h 0,97 h 0,0 UV-I 0 W/m 3,4 km/h (1 Bft)
10.09.2013 00:00 12,4 C 11,1 C 98 % 1009,5 hPa 2,2 l/m 0,00 h 0,77 h 0,0 UV-I 0 W/m 7,8 km/h (2 Bft)
10.09.2013 01:00 12,6 C 11,7 C 98 % 1008,8 hPa 0,2 l/m 0,00 h 0,03 h 0,0 UV-I 0 W/m 6,5 km/h (2 Bft)
10.09.2013 02:00 11,3 C 10,3 C 98 % 1009,4 hPa 0,4 l/m 0,00 h 0,83 h 0,0 UV-I 0 W/m 11,3 km/h (2 Bft)
10.09.2013 03:00 10,7 C 9,9 C 98 % 1010,6 hPa 0,0 l/m 0,00 h 0,07 h 0,0 UV-I 0 W/m 9,1 km/h (2 Bft)
10.09.2013 04:00 10,2 C 9,1 C 98 % 1011,3 hPa 0,0 l/m 0,00 h 0,00 h 0,0 UV-I 0 W/m 7,5 km/h (2 Bft)
10.09.2013 05:00 10,1 C 9,1 C 97 % 1011,7 hPa 0,0 l/m 0,00 h 0,00 h 0,0 UV-I 0 W/m 8,7 km/h (2 Bft)
10.09.2013 06:00 10,3 C 9,4 C 97 % 1011,6 hPa 0,0 l/m 0,00 h 0,00 h 0,0 UV-I 0 W/m 7,2 km/h (2 Bft)
10.09.2013 07:00 10,6 C 9,5 C 97 % 1011,9 hPa 0,0 l/m 0,00 h 0,00 h 0,0 UV-I 17 W/m 6,3 km/h (2 Bft)
10.09.2013 08:00 10,8 C 10,0 C 96 % 1012,6 hPa 0,0 l/m 0,00 h 0,00 h 0,0 UV-I 36 W/m 8,1 km/h (2 Bft)
10.09.2013 09:00 11,2 C 10,9 C 95 % 1012,7 hPa 0,0 l/m 0,20 h 0,00 h 0,5 UV-I 160 W/m 11,3 km/h (2 Bft)
10.09.2013 10:00 12,1 C 11,7 C 92 % 1013,0 hPa 0,0 l/m 0,07 h 0,07 h 0,7 UV-I 162 W/m 10,3 km/h (2 Bft)
10.09.2013 11:00 13,3 C 12,9 C 89 % 1013,2 hPa 0,0 l/m 0,00 h 0,17 h 0,7 UV-I 198 W/m 10,8 km/h (2 Bft)
10.09.2013 12:00 14,0 C 13,7 C 86 % 1013,1 hPa 0,0 l/m 0,00 h 0,00 h 0,9 UV-I 259 W/m 15,8 km/h (3 Bft)
10.09.2013 13:00 14,0 C 12,8 C 87 % 1013,1 hPa 0,0 l/m 0,00 h 0,70 h 0,6 UV-I 167 W/m 8,7 km/h (2 Bft)
10.09.2013 14:00 13,7 C 12,5 C 93 % 1013,1 hPa 0,4 l/m 0,00 h 0,30 h 0,7 UV-I 181 W/m 5,1 km/h (1 Bft)
10.09.2013 15:00 14,6 C 13,2 C 89 % 1013,0 hPa 0,0 l/m 0,13 h 0,50 h 0,9 UV-I 227 W/m 11,1 km/h (2 Bft)
10.09.2013 16:00 14,8 C 13,6 C 89 % 1013,0 hPa 0,0 l/m 0,27 h 0,13 h 0,7 UV-I 255 W/m 9,2 km/h (2 Bft)
10.09.2013 17:00 15,8 C 14,5 C 80 % 1012,8 hPa 0,0 l/m 0,43 h 0,00 h 0,5 UV-I 201 W/m 10,5 km/h (2 Bft)
10.09.2013 18:00 14,3 C 12,4 C 84 % 1012,8 hPa 0,4 l/m 0,00 h 0,20 h 0,0 UV-I 47 W/m 14,1 km/h (3 Bft)
10.09.2013 19:00 13,2 C 11,2 C 90 % 1012,7 hPa 0,0 l/m 0,00 h 0,20 h 0,0 UV-I 13 W/m 10,2 km/h (2 Bft)
10.09.2013 20:00 12,8 C 10,9 C 91 % 1012,5 hPa 0,8 l/m 0,00 h 0,63 h 0,0 UV-I 0 W/m 12,8 km/h (3 Bft)
10.09.2013 21:00 11,8 C 10,4 C 95 % 1011,9 hPa 3,4 l/m 0,00 h 0,97 h 0,0 UV-I 0 W/m 14,2 km/h (3 Bft)
10.09.2013 22:00 11,4 C 10,0 C 96 % 1010,8 hPa 3,2 l/m 0,00 h 0,97 h 0,0 UV-I 0 W/m 24,1 km/h (4 Bft)
10.09.2013 23:00 11,4 C 10,0 C 97 % 1010,2 hPa 1,8 l/m 0,00 h 0,97 h 0,0 UV-I 0 W/m 20,5 km/h (4 Bft)
11.09.2013 00:00 11,6 C 10,5 C 97 % 1009,6 hPa 1,2 l/m 0,00 h 0,83 h 0,0 UV-I 0 W/m 18,9 km/h (3 Bft)
11.09.2013 01:00 11,9 C 10,6 C 97 % 1009,4 hPa 0,0 l/m 0,00 h 0,70 h 0,0 UV-I 0 W/m 18,3 km/h (3 Bft)
11.09.2013 02:00 12,0 C 10,6 C 97 % 1009,2 hPa 0,2 l/m 0,00 h 0,87 h 0,0 UV-I 0 W/m 17,4 km/h (3 Bft)
11.09.2013 03:00 11,9 C 10,6 C 97 % 1009,2 hPa 1,2 l/m 0,00 h 0,73 h 0,0 UV-I 0 W/m 11,4 km/h (2 Bft)
11.09.2013 04:00 11,8 C 10,6 C 98 % 1009,7 hPa 0,8 l/m 0,00 h 0,77 h 0,0 UV-I 0 W/m 4,5 km/h (1 Bft)
11.09.2013 05:00 11,7 C 10,6 C 98 % 1010,1 hPa 0,0 l/m 0,00 h 0,03 h 0,0 UV-I 0 W/m 1,5 km/h (1 Bft)
11.09.2013 06:00 11,4 C 10,1 C 98 % 1010,7 hPa 0,0 l/m 0,00 h 0,00 h 0,0 UV-I 0 W/m 0,4 km/h (0 Bft)
11.09.2013 07:00 10,7 C 9,7 C 99 % 1011,8 hPa 0,2 l/m 0,00 h 0,10 h 0,0 UV-I 15 W/m 0,4 km/h (0 Bft)
11.09.2013 08:00 11,2 C 10,5 C 99 % 1012,4 hPa 0,0 l/m 0,03 h 0,00 h 0,0 UV-I 41 W/m 0,7 km/h (0 Bft)
11.09.2013 09:00 12,0 C 11,5 C 99 % 1012,7 hPa 0,0 l/m 0,00 h 0,00 h 0,0 UV-I 105 W/m 1,9 km/h (1 Bft)
11.09.2013 10:00 13,2 C 12,5 C 99 % 1013,0 hPa 0,0 l/m 0,07 h 0,03 h 0,6 UV-I 182 W/m 4,6 km/h (1 Bft)
11.09.2013 11:00 14,6 C 14,0 C 96 % 1012,9 hPa 0,0 l/m 0,07 h 0,00 h 1,0 UV-I 242 W/m 5,8 km/h (2 Bft)
11.09.2013 12:00 16,7 C 16,2 C 89 % 1012,6 hPa 0,0 l/m 0,43 h 0,00 h 1,6 UV-I 407 W/m 11,0 km/h (2 Bft)
11.09.2013 13:00 17,8 C 17,0 C 81 % 1012,4 hPa 0,0 l/m 0,20 h 0,03 h 1,4 UV-I 326 W/m 8,2 km/h (2 Bft)
11.09.2013 14:00 18,5 C 17,4 C 75 % 1012,3 hPa 0,0 l/m 0,23 h 0,00 h 1,7 UV-I 338 W/m 9,6 km/h (2 Bft)
11.09.2013 15:00 18,6 C 17,6 C 71 % 1012,2 hPa 0,0 l/m 0,60 h 0,00 h 1,7 UV-I 386 W/m 13,2 km/h (3 Bft)
11.09.2013 16:00 14,6 C 12,9 C 89 % 1012,6 hPa 0,8 l/m 0,00 h 0,57 h 0,0 UV-I 51 W/m 4,3 km/h (1 Bft)
11.09.2013 17:00 13,7 C 12,3 C 94 % 1013,1 hPa 0,6 l/m 0,00 h 0,30 h 0,0 UV-I 50 W/m 0,9 km/h (0 Bft)
11.09.2013 18:00 13,8 C 12,5 C 96 % 1013,3 hPa 0,0 l/m 0,00 h 0,10 h 0,0 UV-I 46 W/m 0,2 km/h (0 Bft)
11.09.2013 19:00 13,8 C 12,5 C 96 % 1013,2 hPa 0,0 l/m 0,00 h 0,33 h 0,0 UV-I 19 W/m 0,2 km/h (0 Bft)
11.09.2013 20:00 13,3 C 12,1 C 96 % 1013,4 hPa 0,0 l/m 0,00 h 0,13 h 0,0 UV-I 0 W/m 0,1 km/h (0 Bft)
11.09.2013 21:00 13,2 C 11,7 C 96 % 1013,7 hPa 0,2 l/m 0,00 h 0,37 h 0,0 UV-I 0 W/m 0,6 km/h (0 Bft)
11.09.2013 22:00 13,3 C 11,7 C 96 % 1013,8 hPa 0,0 l/m 0,00 h 0,37 h 0,0 UV-I 0 W/m 0,7 km/h (0 Bft)
11.09.2013 23:00 13,1 C 11,7 C 96 % 1014,0 hPa 0,6 l/m 0,00 h 0,40 h 0,0 UV-I 0 W/m 2,1 km/h (1 Bft)
12.09.2013 00:00 13,1 C 11,7 C 97 % 1014,0 hPa 0,0 l/m 0,00 h 0,00 h 0,0 UV-I 0 W/m 0,6 km/h (0 Bft)
12.09.2013 01:00 13,0 C 11,7 C 98 % 1014,2 hPa 0,2 l/m 0,00 h 0,03 h 0,0 UV-I 0 W/m 0,7 km/h (0 Bft)
12.09.2013 02:00 13,1 C 11,9 C 98 % 1014,3 hPa 0,0 l/m 0,00 h 0,10 h 0,0 UV-I 0 W/m 1,5 km/h (1 Bft)
12.09.2013 03:00 12,9 C 11,7 C 98 % 1014,2 hPa 0,0 l/m 0,00 h 0,00 h 0,0 UV-I 0 W/m 1,1 km/h (1 Bft)
12.09.2013 04:00 12,9 C 11,7 C 98 % 1014,3 hPa 0,0 l/m 0,00 h 0,00 h 0,0 UV-I 0 W/m 2,2 km/h (1 Bft)
12.09.2013 05:00 13,0 C 11,7 C 98 % 1014,4 hPa 0,0 l/m 0,00 h 0,00 h 0,0 UV-I 0 W/m 0,3 km/h (0 Bft)
12.09.2013 06:00 12,9 C 11,7 C 98 % 1014,7 hPa 0,0 l/m 0,00 h 0,00 h 0,0 UV-I 0 W/m 0,3 km/h (0 Bft)
12.09.2013 07:00 13,0 C 11,7 C 98 % 1015,0 hPa 0,0 l/m 0,00 h 0,00 h 0,0 UV-I 9 W/m 0,2 km/h (0 Bft)
12.09.2013 08:00 12,8 C 11,7 C 99 % 1015,3 hPa 0,0 l/m 0,07 h 0,00 h 0,0 UV-I 48 W/m 0,7 km/h (0 Bft)
12.09.2013 09:00 14,2 C 13,5 C 97 % 1015,7 hPa 0,0 l/m 0,10 h 0,00 h 0,0 UV-I 175 W/m 2,6 km/h (1 Bft)
12.09.2013 10:00 15,0 C 14,5 C 92 % 1016,1 hPa 0,0 l/m 0,40 h 0,00 h 0,9 UV-I 260 W/m 3,8 km/h (1 Bft)
12.09.2013 11:00 15,7 C 15,2 C 88 % 1016,2 hPa 0,0 l/m 0,20 h 0,10 h 1,1 UV-I 218 W/m 4,3 km/h (1 Bft)
12.09.2013 12:00 15,2 C 14,5 C 94 % 1016,3 hPa 0,0 l/m 0,00 h 0,40 h 1,1 UV-I 238 W/m 2,0 km/h (1 Bft)
12.09.2013 13:00 16,8 C 16,6 C 89 % 1016,4 hPa 0,0 l/m 0,43 h 0,17 h 1,7 UV-I 376 W/m 4,5 km/h (1 Bft)
12.09.2013 14:00 15,9 C 14,4 C 92 % 1016,6 hPa 0,2 l/m 0,00 h 0,47 h 0,6 UV-I 166 W/m 3,6 km/h (1 Bft)
12.09.2013 15:00 15,3 C 14,4 C 93 % 1016,9 hPa 0,0 l/m 0,13 h 0,03 h 0,9 UV-I 213 W/m 3,4 km/h (1 Bft)
12.09.2013 16:00 15,5 C 14,9 C 91 % 1016,8 hPa 0,0 l/m 0,00 h 0,07 h 0,0 UV-I 116 W/m 2,9 km/h (1 Bft)
12.09.2013 17:00 15,2 C 14,0 C 94 % 1016,7 hPa 0,0 l/m 0,00 h 0,30 h 0,0 UV-I 111 W/m 2,3 km/h (1 Bft)
12.09.2013 18:00 15,2 C 14,3 C 93 % 1016,7 hPa 0,0 l/m 0,00 h 0,03 h 0,0 UV-I 73 W/m 3,2 km/h (1 Bft)
12.09.2013 19:00 14,9 C 13,7 C 94 % 1017,0 hPa 0,0 l/m 0,00 h 0,00 h 0,0 UV-I 21 W/m 0,2 km/h (0 Bft)
12.09.2013 20:00 14,2 C 12,7 C 96 % 1017,6 hPa 0,0 l/m 0,00 h 0,00 h 0,0 UV-I 0 W/m 0,1 km/h (0 Bft)
12.09.2013 21:00 13,9 C 12,8 C 97 % 1017,9 hPa 0,0 l/m 0,00 h 0,00 h 0,0 UV-I 0 W/m 1,6 km/h (1 Bft)
12.09.2013 22:00 13,6 C 12,2 C 96 % 1018,1 hPa 0,0 l/m 0,00 h 0,00 h 0,0 UV-I 0 W/m 1,9 km/h (1 Bft)
12.09.2013 23:00 13,1 C 11,8 C 97 % 1018,5 hPa 0,0 l/m 0,00 h 0,00 h 0,0 UV-I 0 W/m 0,6 km/h (0 Bft)
13.09.2013 00:00 13,1 C 12,2 C 97 % 1018,6 hPa 0,0 l/m 0,00 h 0,00 h 0,0 UV-I 0 W/m 1,9 km/h (1 Bft)
13.09.2013 01:00 13,2 C 12,2 C 97 % 1018,7 hPa 0,0 l/m 0,00 h 0,00 h 0,0 UV-I 0 W/m 0,9 km/h (0 Bft)
13.09.2013 02:00 13,3 C 12,2 C 97 % 1018,7 hPa 0,0 l/m 0,00 h 0,00 h 0,0 UV-I 0 W/m 0,4 km/h (0 Bft)
13.09.2013 03:00 13,5 C 12,7 C 98 % 1018,7 hPa 0,0 l/m 0,00 h 0,00 h 0,0 UV-I 0 W/m 0,6 km/h (0 Bft)
13.09.2013 04:00 13,4 C 12,5 C 98 % 1018,8 hPa 0,0 l/m 0,00 h 0,00 h 0,0 UV-I 0 W/m 0,3 km/h (0 Bft)
13.09.2013 05:00 13,1 C 12,1 C 98 % 1018,8 hPa 0,0 l/m 0,00 h 0,00 h 0,0 UV-I 0 W/m 0,0 km/h (0 Bft)
13.09.2013 06:00 13,2 C 12,2 C 98 % 1019,1 hPa 0,0 l/m 0,00 h 0,00 h 0,0 UV-I 0 W/m 0,0 km/h (0 Bft)
13.09.2013 07:00 13,2 C 12,3 C 98 % 1019,3 hPa 0,0 l/m 0,27 h 0,00 h 0,0 UV-I 35 W/m 0,1 km/h (0 Bft)
13.09.2013 08:00 13,9 C 13,2 C 98 % 1019,6 hPa 0,0 l/m 0,17 h 0,00 h 0,0 UV-I 88 W/m 0,7 km/h (0 Bft)
13.09.2013 09:00 14,2 C 13,7 C 95 % 1019,9 hPa 0,0 l/m 0,10 h 0,00 h 0,5 UV-I 122 W/m 1,3 km/h (1 Bft)
13.09.2013 10:00 15,8 C 14,8 C 89 % 1020,1 hPa 0,0 l/m 0,60 h 0,00 h 1,1 UV-I 340 W/m 0,3 km/h (0 Bft)
13.09.2013 11:00 17,0 C 16,4 C 83 % 1020,1 hPa 0,0 l/m 0,20 h 0,00 h 1,4 UV-I 302 W/m 1,9 km/h (1 Bft)
13.09.2013 12:00 18,5 C 17,6 C 76 % 1019,9 hPa 0,0 l/m 0,47 h 0,00 h 2,0 UV-I 385 W/m 3,5 km/h (1 Bft)
13.09.2013 13:00 19,3 C 18,7 C 73 % 1019,7 hPa 0,0 l/m 0,67 h 0,00 h 2,2 UV-I 509 W/m 4,0 km/h (1 Bft)
13.09.2013 14:00 20,1 C 19,3 C 67 % 1019,6 hPa 0,0 l/m 0,47 h 0,00 h 2,1 UV-I 477 W/m 5,8 km/h (2 Bft)
13.09.2013 15:00 19,5 C 18,5 C 68 % 1019,4 hPa 0,0 l/m 0,23 h 0,00 h 1,3 UV-I 275 W/m 7,1 km/h (2 Bft)
13.09.2013 16:00 19,1 C 18,2 C 72 % 1018,9 hPa 0,0 l/m 0,03 h 0,00 h 0,7 UV-I 215 W/m 3,9 km/h (1 Bft)
13.09.2013 17:00 18,2 C 16,9 C 74 % 1018,6 hPa 0,0 l/m 0,00 h 0,00 h 0,0 UV-I 104 W/m 5,0 km/h (1 Bft)
13.09.2013 18:00 17,0 C 15,6 C 82 % 1018,5 hPa 0,0 l/m 0,00 h 0,43 h 0,0 UV-I 33 W/m 2,6 km/h (1 Bft)
13.09.2013 19:00 15,7 C 14,4 C 87 % 1018,4 hPa 0,0 l/m 0,00 h 0,03 h 0,0 UV-I 10 W/m 1,1 km/h (0 Bft)
13.09.2013 20:00 15,4 C 13,9 C 86 % 1018,3 hPa 0,0 l/m 0,00 h 0,03 h 0,0 UV-I 0 W/m 1,0 km/h (0 Bft)
13.09.2013 21:00 15,1 C 13,6 C 89 % 1018,1 hPa 0,0 l/m 0,00 h 0,07 h 0,0 UV-I 0 W/m 1,2 km/h (1 Bft)
13.09.2013 22:00 15,3 C 13,9 C 90 % 1017,7 hPa 0,0 l/m 0,00 h 0,10 h 0,0 UV-I 0 W/m 3,3 km/h (1 Bft)
13.09.2013 23:00 15,1 C 13,4 C 91 % 1017,1 hPa 0,2 l/m 0,00 h 0,23 h 0,0 UV-I 0 W/m 0,3 km/h (0 Bft)
14.09.2013 00:00 14,7 C 13,3 C 94 % 1016,4 hPa 0,0 l/m 0,00 h 0,00 h 0,0 UV-I 0 W/m 0,0 km/h (0 Bft)
14.09.2013 01:00 14,8 C 13,3 C 95 % 1015,8 hPa 0,4 l/m 0,00 h 0,67 h 0,0 UV-I 0 W/m 0,0 km/h (0 Bft)
14.09.2013 02:00 14,7 C 13,3 C 97 % 1015,0 hPa 0,6 l/m 0,00 h 0,33 h 0,0 UV-I 0 W/m 0,2 km/h (0 Bft)
14.09.2013 03:00 14,8 C 13,6 C 98 % 1014,3 hPa 0,0 l/m 0,00 h 0,00 h 0,0 UV-I 0 W/m 0,0 km/h (0 Bft)
14.09.2013 04:00 15,0 C 13,9 C 99 % 1013,6 hPa 0,0 l/m 0,00 h 0,27 h 0,0 UV-I 0 W/m 0,0 km/h (0 Bft)
14.09.2013 05:00 15,1 C 13,9 C 99 % 1012,9 hPa 0,2 l/m 0,00 h 0,83 h 0,0 UV-I 0 W/m 0,0 km/h (0 Bft)
14.09.2013 06:00 15,3 C 13,9 C 99 % 1012,4 hPa 0,6 l/m 0,00 h 0,97 h 0,0 UV-I 0 W/m 0,0 km/h (0 Bft)
14.09.2013 07:00 15,3 C 13,9 C 99 % 1012,0 hPa 0,6 l/m 0,00 h 0,97 h 0,0 UV-I 12 W/m 0,1 km/h (0 Bft)
14.09.2013 08:00 15,5 C 14,4 C 99 % 1011,7 hPa 1,8 l/m 0,00 h 0,97 h 0,0 UV-I 20 W/m 0,5 km/h (0 Bft)
14.09.2013 09:00 15,7 C 14,4 C 99 % 1011,2 hPa 0,8 l/m 0,00 h 0,97 h 0,0 UV-I 42 W/m 1,4 km/h (1 Bft)
14.09.2013 10:00 15,9 C 14,9 C 99 % 1011,0 hPa 0,2 l/m 0,00 h 0,67 h 0,0 UV-I 94 W/m 9,2 km/h (2 Bft)
14.09.2013 11:00 16,6 C 15,6 C 99 % 1010,6 hPa 0,0 l/m 0,00 h 0,00 h 0,9 UV-I 135 W/m 8,9 km/h (2 Bft)
14.09.2013 12:00 16,8 C 15,5 C 97 % 1010,3 hPa 0,8 l/m 0,03 h 0,30 h 1,4 UV-I 187 W/m 11,1 km/h (2 Bft)
14.09.2013 13:00 17,7 C 16,3 C 91 % 1010,1 hPa 0,0 l/m 0,13 h 0,07 h 1,5 UV-I 277 W/m 15,3 km/h (3 Bft)
14.09.2013 14:00 18,3 C 17,2 C 86 % 1010,1 hPa 0,0 l/m 0,10 h 0,00 h 1,4 UV-I 256 W/m 13,0 km/h (3 Bft)
14.09.2013 15:00 18,2 C 17,1 C 84 % 1010,1 hPa 0,0 l/m 0,03 h 0,00 h 1,1 UV-I 193 W/m 14,2 km/h (3 Bft)
14.09.2013 16:00 16,8 C 15,5 C 89 % 1010,5 hPa 0,2 l/m 0,10 h 0,23 h 0,0 UV-I 115 W/m 13,3 km/h (3 Bft)
14.09.2013 17:00 15,9 C 14,4 C 90 % 1011,1 hPa 0,0 l/m 0,37 h 0,00 h 0,5 UV-I 176 W/m 14,3 km/h (3 Bft)
14.09.2013 18:00 16,1 C 14,8 C 88 % 1011,6 hPa 0,0 l/m 0,10 h 0,00 h 0,0 UV-I 48 W/m 3,5 km/h (1 Bft)
14.09.2013 19:00 15,4 C 14,1 C 90 % 1012,2 hPa 0,0 l/m 0,00 h 0,00 h 0,0 UV-I 14 W/m 0,9 km/h (0 Bft)
14.09.2013 20:00 14,9 C 13,8 C 91 % 1012,8 hPa 0,0 l/m 0,00 h 0,00 h 0,0 UV-I 0 W/m 0,8 km/h (0 Bft)
14.09.2013 21:00 14,7 C 13,3 C 90 % 1013,4 hPa 0,0 l/m 0,00 h 0,00 h 0,0 UV-I 0 W/m 1,3 km/h (1 Bft)
14.09.2013 22:00 14,3 C 13,1 C 91 % 1013,7 hPa 0,0 l/m 0,00 h 0,00 h 0,0 UV-I 0 W/m 0,0 km/h (0 Bft)
14.09.2013 23:00 13,7 C 12,8 C 93 % 1013,9 hPa 0,0 l/m 0,00 h 0,00 h 0,0 UV-I 0 W/m 0,0 km/h (0 Bft)
15.09.2013 00:00 13,2 C 12,0 C 92 % 1014,0 hPa 0,0 l/m 0,00 h 0,00 h 0,0 UV-I 0 W/m 0,0 km/h (0 Bft)
15.09.2013 01:00 12,2 C 10,9 C 94 % 1014,0 hPa 0,0 l/m 0,00 h 0,00 h 0,0 UV-I 0 W/m 0,0 km/h (0 Bft)
15.09.2013 02:00 11,6 C 10,3 C 95 % 1014,0 hPa 0,0 l/m 0,00 h 0,00 h 0,0 UV-I 0 W/m 0,0 km/h (0 Bft)
15.09.2013 03:00 11,0 C 9,7 C 97 % 1013,8 hPa 0,0 l/m 0,00 h 0,00 h 0,0 UV-I 0 W/m 0,0 km/h (0 Bft)
15.09.2013 04:00 10,5 C 9,4 C 97 % 1013,7 hPa 0,0 l/m 0,00 h 0,00 h 0,0 UV-I 0 W/m 0,0 km/h (0 Bft)
15.09.2013 05:00 9,9 C 8,6 C 98 % 1013,4 hPa 0,0 l/m 0,00 h 0,00 h 0,0 UV-I 0 W/m 0,0 km/h (0 Bft)
15.09.2013 06:00 9,2 C 7,9 C 98 % 1013,0 hPa 0,0 l/m 0,00 h 0,00 h 0,0 UV-I 0 W/m 0,0 km/h (0 Bft)
15.09.2013 07:00 8,9 C 7,8 C 98 % 1013,0 hPa 0,0 l/m 0,00 h 0,00 h 0,0 UV-I 11 W/m 0,0 km/h (0 Bft)
15.09.2013 08:00 9,5 C 8,8 C 99 % 1012,9 hPa 0,0 l/m 0,47 h 0,00 h 0,0 UV-I 97 W/m 0,0 km/h (0 Bft)
15.09.2013 09:00 11,5 C 10,4 C 98 % 1013,0 hPa 0,0 l/m 0,97 h 0,00 h 0,5 UV-I 276 W/m 0,0 km/h (0 Bft)
15.09.2013 10:00 14,4 C 12,7 C 85 % 1012,9 hPa 0,0 l/m 0,97 h 0,00 h 1,0 UV-I 426 W/m 0,0 km/h (0 Bft)
15.09.2013 11:00 15,6 C 14,5 C 75 % 1012,6 hPa 0,0 l/m 0,40 h 0,00 h 1,2 UV-I 319 W/m 0,0 km/h (0 Bft)
15.09.2013 12:00 15,7 C 15,1 C 71 % 1012,0 hPa 0,0 l/m 0,20 h 0,00 h 1,4 UV-I 262 W/m 0,0 km/h (0 Bft)
15.09.2013 13:00 16,1 C 15,3 C 70 % 1011,6 hPa 0,0 l/m 0,20 h 0,00 h 1,2 UV-I 273 W/m 0,0 km/h (0 Bft)
15.09.2013 14:00 16,1 C 15,8 C 69 % 1010,9 hPa 0,0 l/m 0,33 h 0,00 h 1,7 UV-I 327 W/m 0,0 km/h (0 Bft)
15.09.2013 15:00 16,4 C 16,2 C 68 % 1009,9 hPa 0,0 l/m 0,20 h 0,00 h 1,3 UV-I 323 W/m 0,2 km/h (0 Bft)
15.09.2013 16:00 16,7 C 16,1 C 69 % 1009,0 hPa 0,0 l/m 0,70 h 0,00 h 0,8 UV-I 298 W/m 0,0 km/h (0 Bft)
15.09.2013 17:00 15,8 C 14,9 C 73 % 1008,5 hPa 0,0 l/m 0,00 h 0,00 h 0,0 UV-I 121 W/m 0,4 km/h (0 Bft)
15.09.2013 18:00 15,2 C 14,1 C 76 % 1007,8 hPa 0,0 l/m 0,00 h 0,00 h 0,0 UV-I 62 W/m 0,7 km/h (0 Bft)
15.09.2013 19:00 14,6 C 13,3 C 78 % 1007,3 hPa 0,0 l/m 0,00 h 0,00 h 0,0 UV-I 11 W/m 0,0 km/h (0 Bft)
15.09.2013 20:00 14,3 C 12,5 C 79 % 1007,0 hPa 0,0 l/m 0,00 h 0,40 h 0,0 UV-I 0 W/m 0,9 km/h (0 Bft)
15.09.2013 21:00 13,7 C 11,9 C 81 % 1006,8 hPa 0,0 l/m 0,00 h 0,53 h 0,0 UV-I 0 W/m 1,2 km/h (1 Bft)
15.09.2013 22:00 12,4 C 10,6 C 90 % 1006,0 hPa 1,0 l/m 0,00 h 0,87 h 0,0 UV-I 0 W/m 3,8 km/h (1 Bft)
15.09.2013 23:00 11,9 C 10,6 C 94 % 1005,1 hPa 0,6 l/m 0,00 h 0,97 h 0,0 UV-I 0 W/m 8,7 km/h (2 Bft)
Min-Datum _ 15.09.13 15.09.13 09.09.13 15.09.13 - - - - - 09.09.13
_ Min-Zeit 07:12 06:08 16:05 23:58 - - - - - 00:00
Minimum _ 8,7 C 7,8 C 58 % 1004,4 hPa - - - - - 0,0 km/h (0 Bft)
Max-Datum _ 13.09.13 09.09.13 12.09.13 13.09.13 10.09.13 09.09.13 09.09.13 13.09.13 09.09.13 10.09.13
_ Max-Zeit 14:08 17:10 09:14 10:58 21:06 08:30 03:54 13:44 12:54 22:24
Maximum _ 20,9 C 20,0 C 100 % 1020,3 hPa 3,4 l/m 0,03 h 0,03 h 3,3 UV-I 893 W/m 46,3 km/h
W (6 Bft)
Durchschnitt _ 14,1 C 13,0 C 91 % 1014,1 hPa #36,4 l/m #16:22 h #32:49 h 1,2 UV-I 187 W/m 4,2 km/h (1 Bft)
© 2013 W. Hausmann